sensor_id;sensor_type;location;lat;lon;timestamp;pressure;altitude;pressure_sealevel;temperature
25514;BMP180;48128;54.242;10.280;2022-10-16T00:00:54;100382.00;;;12.40
25514;BMP180;48128;54.242;10.280;2022-10-16T00:03:21;100385.00;;;12.40
25514;BMP180;48128;54.242;10.280;2022-10-16T00:05:59;100380.00;;;12.40
25514;BMP180;48128;54.242;10.280;2022-10-16T00:08:27;100393.00;;;12.40
25514;BMP180;48128;54.242;10.280;2022-10-16T00:10:59;100387.00;;;12.30
25514;BMP180;48128;54.242;10.280;2022-10-16T00:13:26;100395.00;;;12.30
25514;BMP180;48128;54.242;10.280;2022-10-16T00:15:55;100395.00;;;12.30
25514;BMP180;48128;54.242;10.280;2022-10-16T00:18:23;100394.00;;;12.30
25514;BMP180;48128;54.242;10.280;2022-10-16T00:20:50;100395.00;;;12.30
25514;BMP180;48128;54.242;10.280;2022-10-16T00:23:17;100383.00;;;12.30
25514;BMP180;48128;54.242;10.280;2022-10-16T00:25:44;100390.00;;;12.30
25514;BMP180;48128;54.242;10.280;2022-10-16T00:28:11;100397.00;;;12.30
25514;BMP180;48128;54.242;10.280;2022-10-16T00:30:38;100400.00;;;12.20
25514;BMP180;48128;54.242;10.280;2022-10-16T00:33:05;100396.00;;;12.20
25514;BMP180;48128;54.242;10.280;2022-10-16T00:35:32;100392.00;;;12.20
25514;BMP180;48128;54.242;10.280;2022-10-16T00:37:59;100400.00;;;12.20
25514;BMP180;48128;54.242;10.280;2022-10-16T00:40:26;100401.00;;;12.20
25514;BMP180;48128;54.242;10.280;2022-10-16T00:42:54;100404.00;;;12.20
25514;BMP180;48128;54.242;10.280;2022-10-16T00:45:21;100401.00;;;12.20
25514;BMP180;48128;54.242;10.280;2022-10-16T00:47:48;100403.00;;;12.20
25514;BMP180;48128;54.242;10.280;2022-10-16T00:50:22;100410.00;;;12.10
25514;BMP180;48128;54.242;10.280;2022-10-16T00:52:50;100408.00;;;12.10
25514;BMP180;48128;54.242;10.280;2022-10-16T00:55:18;100401.00;;;12.10
25514;BMP180;48128;54.242;10.280;2022-10-16T00:57:45;100410.00;;;12.10
25514;BMP180;48128;54.242;10.280;2022-10-16T01:00:15;100416.00;;;12.10
25514;BMP180;48128;54.242;10.280;2022-10-16T01:02:43;100410.00;;;12.10
25514;BMP180;48128;54.242;10.280;2022-10-16T01:05:10;100405.00;;;12.10
25514;BMP180;48128;54.242;10.280;2022-10-16T01:07:58;100427.00;;;12.10
25514;BMP180;48128;54.242;10.280;2022-10-16T01:10:40;100421.00;;;12.10
25514;BMP180;48128;54.242;10.280;2022-10-16T01:13:15;100411.00;;;12.10
25514;BMP180;48128;54.242;10.280;2022-10-16T01:18:28;100431.00;;;12.10
25514;BMP180;48128;54.242;10.280;2022-10-16T01:21:04;100417.00;;;12.10
25514;BMP180;48128;54.242;10.280;2022-10-16T01:23:58;100421.00;;;12.10
25514;BMP180;48128;54.242;10.280;2022-10-16T01:27:01;100423.00;;;12.20
25514;BMP180;48128;54.242;10.280;2022-10-16T01:32:00;100429.00;;;12.10
25514;BMP180;48128;54.242;10.280;2022-10-16T01:35:34;100436.00;;;12.10
25514;BMP180;48128;54.242;10.280;2022-10-16T01:37:51;100432.00;;;12.10
25514;BMP180;48128;54.242;10.280;2022-10-16T01:40:20;100433.00;;;12.10
25514;BMP180;48128;54.242;10.280;2022-10-16T01:42:55;100443.00;;;12.10
25514;BMP180;48128;54.242;10.280;2022-10-16T01:45:29;100433.00;;;12.20
25514;BMP180;48128;54.242;10.280;2022-10-16T01:47:56;100433.00;;;12.20
25514;BMP180;48128;54.242;10.280;2022-10-16T01:50:24;100432.00;;;12.20
25514;BMP180;48128;54.242;10.280;2022-10-16T01:52:52;100431.00;;;12.20
25514;BMP180;48128;54.242;10.280;2022-10-16T01:55:24;100421.00;;;12.20
25514;BMP180;48128;54.242;10.280;2022-10-16T01:57:53;100423.00;;;12.20
25514;BMP180;48128;54.242;10.280;2022-10-16T02:00:21;100419.00;;;12.20
25514;BMP180;48128;54.242;10.280;2022-10-16T02:02:51;100424.00;;;12.20
25514;BMP180;48128;54.242;10.280;2022-10-16T02:05:24;100431.00;;;12.20
25514;BMP180;48128;54.242;10.280;2022-10-16T02:07:53;100423.00;;;12.10
25514;BMP180;48128;54.242;10.280;2022-10-16T02:10:20;100424.00;;;12.10
25514;BMP180;48128;54.242;10.280;2022-10-16T02:13:02;100422.00;;;12.10
25514;BMP180;48128;54.242;10.280;2022-10-16T02:15:30;100431.00;;;12.10
25514;BMP180;48128;54.242;10.280;2022-10-16T02:17:57;100419.00;;;12.10
25514;BMP180;48128;54.242;10.280;2022-10-16T02:20:26;100432.00;;;12.10
25514;BMP180;48128;54.242;10.280;2022-10-16T02:22:54;100430.00;;;12.10
25514;BMP180;48128;54.242;10.280;2022-10-16T02:25:30;100418.00;;;12.10
25514;BMP180;48128;54.242;10.280;2022-10-16T02:30:58;100424.00;;;12.00
25514;BMP180;48128;54.242;10.280;2022-10-16T02:33:27;100429.00;;;12.00
25514;BMP180;48128;54.242;10.280;2022-10-16T02:35:55;100420.00;;;12.00
25514;BMP180;48128;54.242;10.280;2022-10-16T02:38:23;100431.00;;;12.00
25514;BMP180;48128;54.242;10.280;2022-10-16T02:40:51;100430.00;;;12.00
25514;BMP180;48128;54.242;10.280;2022-10-16T02:43:18;100437.00;;;12.00
25514;BMP180;48128;54.242;10.280;2022-10-16T02:45:45;100427.00;;;11.90
25514;BMP180;48128;54.242;10.280;2022-10-16T02:48:12;100435.00;;;11.90
25514;BMP180;48128;54.242;10.280;2022-10-16T02:50:38;100430.00;;;11.90
25514;BMP180;48128;54.242;10.280;2022-10-16T02:53:05;100426.00;;;12.00
25514;BMP180;48128;54.242;10.280;2022-10-16T02:55:32;100435.00;;;12.00
25514;BMP180;48128;54.242;10.280;2022-10-16T02:57:59;100429.00;;;12.00
25514;BMP180;48128;54.242;10.280;2022-10-16T03:00:26;100432.00;;;12.00
25514;BMP180;48128;54.242;10.280;2022-10-16T03:02:52;100431.00;;;12.00
25514;BMP180;48128;54.242;10.280;2022-10-16T03:05:19;100434.00;;;12.00
25514;BMP180;48128;54.242;10.280;2022-10-16T03:07:51;100443.00;;;12.00
25514;BMP180;48128;54.242;10.280;2022-10-16T03:10:19;100439.00;;;11.90
25514;BMP180;48128;54.242;10.280;2022-10-16T03:12:46;100432.00;;;11.90
25514;BMP180;48128;54.242;10.280;2022-10-16T03:15:13;100436.00;;;11.90
25514;BMP180;48128;54.242;10.280;2022-10-16T03:17:39;100441.00;;;11.90
25514;BMP180;48128;54.242;10.280;2022-10-16T03:20:06;100432.00;;;11.80
25514;BMP180;48128;54.242;10.280;2022-10-16T03:22:33;100427.00;;;11.80
25514;BMP180;48128;54.242;10.280;2022-10-16T03:25:00;100431.00;;;11.80
25514;BMP180;48128;54.242;10.280;2022-10-16T03:27:27;100425.00;;;11.70
25514;BMP180;48128;54.242;10.280;2022-10-16T03:29:54;100426.00;;;11.70
25514;BMP180;48128;54.242;10.280;2022-10-16T03:32:21;100436.00;;;11.70
25514;BMP180;48128;54.242;10.280;2022-10-16T03:34:48;100424.00;;;11.70
25514;BMP180;48128;54.242;10.280;2022-10-16T03:37:15;100428.00;;;11.60
25514;BMP180;48128;54.242;10.280;2022-10-16T03:39:42;100432.00;;;11.60
25514;BMP180;48128;54.242;10.280;2022-10-16T03:42:09;100428.00;;;11.50
25514;BMP180;48128;54.242;10.280;2022-10-16T03:44:36;100431.00;;;11.50
25514;BMP180;48128;54.242;10.280;2022-10-16T03:47:03;100426.00;;;11.50
25514;BMP180;48128;54.242;10.280;2022-10-16T03:49:30;100428.00;;;11.50
25514;BMP180;48128;54.242;10.280;2022-10-16T03:51:56;100438.00;;;11.50
25514;BMP180;48128;54.242;10.280;2022-10-16T03:54:23;100446.00;;;11.40
25514;BMP180;48128;54.242;10.280;2022-10-16T03:56:50;100452.00;;;11.40
25514;BMP180;48128;54.242;10.280;2022-10-16T03:59:17;100444.00;;;11.40
25514;BMP180;48128;54.242;10.280;2022-10-16T04:01:44;100449.00;;;11.40
25514;BMP180;48128;54.242;10.280;2022-10-16T04:04:10;100452.00;;;11.40
25514;BMP180;48128;54.242;10.280;2022-10-16T04:06:37;100448.00;;;11.40
25514;BMP180;48128;54.242;10.280;2022-10-16T04:09:04;100450.00;;;11.40
25514;BMP180;48128;54.242;10.280;2022-10-16T04:11:31;100459.00;;;11.40
25514;BMP180;48128;54.242;10.280;2022-10-16T04:13:58;100470.00;;;11.40
25514;BMP180;48128;54.242;10.280;2022-10-16T04:16:25;100468.00;;;11.40
25514;BMP180;48128;54.242;10.280;2022-10-16T04:18:52;100468.00;;;11.40
25514;BMP180;48128;54.242;10.280;2022-10-16T04:21:19;100460.00;;;11.40
25514;BMP180;48128;54.242;10.280;2022-10-16T04:23:46;100473.00;;;11.40
25514;BMP180;48128;54.242;10.280;2022-10-16T04:26:13;100476.00;;;11.40
25514;BMP180;48128;54.242;10.280;2022-10-16T04:28:39;100481.00;;;11.40
25514;BMP180;48128;54.242;10.280;2022-10-16T04:31:07;100493.00;;;11.40
25514;BMP180;48128;54.242;10.280;2022-10-16T04:33:34;100493.00;;;11.30
25514;BMP180;48128;54.242;10.280;2022-10-16T04:36:02;100486.00;;;11.30
25514;BMP180;48128;54.242;10.280;2022-10-16T04:38:29;100496.00;;;11.30
25514;BMP180;48128;54.242;10.280;2022-10-16T04:40:56;100492.00;;;11.30
25514;BMP180;48128;54.242;10.280;2022-10-16T04:43:23;100497.00;;;11.30
25514;BMP180;48128;54.242;10.280;2022-10-16T04:45:50;100491.00;;;11.30
25514;BMP180;48128;54.242;10.280;2022-10-16T04:48:18;100492.00;;;11.30
25514;BMP180;48128;54.242;10.280;2022-10-16T04:50:45;100488.00;;;11.30
25514;BMP180;48128;54.242;10.280;2022-10-16T04:53:16;100497.00;;;11.40
25514;BMP180;48128;54.242;10.280;2022-10-16T04:55:45;100496.00;;;11.40
25514;BMP180;48128;54.242;10.280;2022-10-16T04:58:12;100497.00;;;11.40
25514;BMP180;48128;54.242;10.280;2022-10-16T05:00:39;100495.00;;;11.40
25514;BMP180;48128;54.242;10.280;2022-10-16T05:03:06;100500.00;;;11.50
25514;BMP180;48128;54.242;10.280;2022-10-16T05:05:35;100498.00;;;11.50
25514;BMP180;48128;54.242;10.280;2022-10-16T05:08:03;100505.00;;;11.50
25514;BMP180;48128;54.242;10.280;2022-10-16T05:10:30;100505.00;;;11.50
25514;BMP180;48128;54.242;10.280;2022-10-16T05:12:57;100511.00;;;11.50
25514;BMP180;48128;54.242;10.280;2022-10-16T05:15:24;100505.00;;;11.50
25514;BMP180;48128;54.242;10.280;2022-10-16T05:17:55;100512.00;;;11.50
25514;BMP180;48128;54.242;10.280;2022-10-16T05:20:22;100498.00;;;11.50
25514;BMP180;48128;54.242;10.280;2022-10-16T05:22:49;100498.00;;;11.50
25514;BMP180;48128;54.242;10.280;2022-10-16T05:25:16;100501.00;;;11.50
25514;BMP180;48128;54.242;10.280;2022-10-16T05:27:43;100496.00;;;11.50
25514;BMP180;48128;54.242;10.280;2022-10-16T05:30:10;100508.00;;;11.50
25514;BMP180;48128;54.242;10.280;2022-10-16T05:32:38;100512.00;;;11.50
25514;BMP180;48128;54.242;10.280;2022-10-16T05:35:05;100516.00;;;11.50
25514;BMP180;48128;54.242;10.280;2022-10-16T05:37:38;100509.00;;;11.50
25514;BMP180;48128;54.242;10.280;2022-10-16T05:40:05;100524.00;;;11.50
25514;BMP180;48128;54.242;10.280;2022-10-16T05:42:32;100534.00;;;11.40
25514;BMP180;48128;54.242;10.280;2022-10-16T05:44:59;100522.00;;;11.40
25514;BMP180;48128;54.242;10.280;2022-10-16T05:47:26;100530.00;;;11.40
25514;BMP180;48128;54.242;10.280;2022-10-16T05:49:54;100529.00;;;11.40
25514;BMP180;48128;54.242;10.280;2022-10-16T05:52:22;100541.00;;;11.40
25514;BMP180;48128;54.242;10.280;2022-10-16T05:54:48;100539.00;;;11.50
25514;BMP180;48128;54.242;10.280;2022-10-16T05:57:16;100543.00;;;11.50
25514;BMP180;48128;54.242;10.280;2022-10-16T05:59:43;100557.00;;;11.50
25514;BMP180;48128;54.242;10.280;2022-10-16T06:02:13;100554.00;;;11.50
25514;BMP180;48128;54.242;10.280;2022-10-16T06:04:40;100557.00;;;11.60
25514;BMP180;48128;54.242;10.280;2022-10-16T06:07:07;100550.00;;;11.60
25514;BMP180;48128;54.242;10.280;2022-10-16T06:09:34;100550.00;;;11.60
25514;BMP180;48128;54.242;10.280;2022-10-16T06:12:01;100549.00;;;11.70
25514;BMP180;48128;54.242;10.280;2022-10-16T06:14:28;100557.00;;;11.70
25514;BMP180;48128;54.242;10.280;2022-10-16T06:16:54;100561.00;;;11.70
25514;BMP180;48128;54.242;10.280;2022-10-16T06:19:21;100564.00;;;11.70
25514;BMP180;48128;54.242;10.280;2022-10-16T06:21:49;100559.00;;;11.80
25514;BMP180;48128;54.242;10.280;2022-10-16T06:24:16;100555.00;;;11.80
25514;BMP180;48128;54.242;10.280;2022-10-16T06:26:43;100547.00;;;11.80
25514;BMP180;48128;54.242;10.280;2022-10-16T06:29:10;100559.00;;;11.80
25514;BMP180;48128;54.242;10.280;2022-10-16T06:31:37;100546.00;;;11.80
25514;BMP180;48128;54.242;10.280;2022-10-16T06:34:04;100552.00;;;11.80
25514;BMP180;48128;54.242;10.280;2022-10-16T06:36:33;100553.00;;;11.80
25514;BMP180;48128;54.242;10.280;2022-10-16T06:39:00;100558.00;;;11.80
25514;BMP180;48128;54.242;10.280;2022-10-16T06:41:27;100565.00;;;11.90
25514;BMP180;48128;54.242;10.280;2022-10-16T06:43:53;100561.00;;;12.00
25514;BMP180;48128;54.242;10.280;2022-10-16T06:46:22;100575.00;;;12.00
25514;BMP180;48128;54.242;10.280;2022-10-16T06:48:50;100570.00;;;12.10
25514;BMP180;48128;54.242;10.280;2022-10-16T06:51:19;100586.00;;;12.10
25514;BMP180;48128;54.242;10.280;2022-10-16T06:53:48;100583.00;;;12.20
25514;BMP180;48128;54.242;10.280;2022-10-16T06:56:31;100587.00;;;12.20
25514;BMP180;48128;54.242;10.280;2022-10-16T06:58:58;100582.00;;;12.20
25514;BMP180;48128;54.242;10.280;2022-10-16T07:01:26;100597.00;;;12.30
25514;BMP180;48128;54.242;10.280;2022-10-16T07:03:53;100597.00;;;12.30
25514;BMP180;48128;54.242;10.280;2022-10-16T07:06:22;100606.00;;;12.30
25514;BMP180;48128;54.242;10.280;2022-10-16T07:08:49;100611.00;;;12.30
25514;BMP180;48128;54.242;10.280;2022-10-16T07:11:18;100608.00;;;12.30
25514;BMP180;48128;54.242;10.280;2022-10-16T07:13:46;100609.00;;;12.30
25514;BMP180;48128;54.242;10.280;2022-10-16T07:16:22;100619.00;;;12.40
25514;BMP180;48128;54.242;10.280;2022-10-16T07:18:49;100628.00;;;12.40
25514;BMP180;48128;54.242;10.280;2022-10-16T07:21:21;100630.00;;;12.40
25514;BMP180;48128;54.242;10.280;2022-10-16T07:23:53;100626.00;;;12.40
25514;BMP180;48128;54.242;10.280;2022-10-16T07:26:20;100635.00;;;12.50
25514;BMP180;48128;54.242;10.280;2022-10-16T07:28:47;100630.00;;;12.60
25514;BMP180;48128;54.242;10.280;2022-10-16T07:31:15;100633.00;;;12.60
25514;BMP180;48128;54.242;10.280;2022-10-16T07:33:43;100637.00;;;12.70
25514;BMP180;48128;54.242;10.280;2022-10-16T07:36:12;100631.00;;;12.80
25514;BMP180;48128;54.242;10.280;2022-10-16T07:38:42;100639.00;;;12.80
25514;BMP180;48128;54.242;10.280;2022-10-16T07:41:19;100625.00;;;12.90
25514;BMP180;48128;54.242;10.280;2022-10-16T07:43:51;100631.00;;;12.90
25514;BMP180;48128;54.242;10.280;2022-10-16T07:46:19;100640.00;;;12.90
25514;BMP180;48128;54.242;10.280;2022-10-16T07:48:46;100647.00;;;12.90
25514;BMP180;48128;54.242;10.280;2022-10-16T07:51:16;100649.00;;;12.90
25514;BMP180;48128;54.242;10.280;2022-10-16T07:53:43;100629.00;;;12.90
25514;BMP180;48128;54.242;10.280;2022-10-16T07:56:11;100639.00;;;12.80
25514;BMP180;48128;54.242;10.280;2022-10-16T07:58:38;100629.00;;;12.80
25514;BMP180;48128;54.242;10.280;2022-10-16T08:01:07;100630.00;;;12.80
25514;BMP180;48128;54.242;10.280;2022-10-16T08:03:34;100621.00;;;12.80
25514;BMP180;48128;54.242;10.280;2022-10-16T08:06:02;100627.00;;;12.80
25514;BMP180;48128;54.242;10.280;2022-10-16T08:08:29;100625.00;;;12.90
25514;BMP180;48128;54.242;10.280;2022-10-16T08:10:56;100638.00;;;13.00
25514;BMP180;48128;54.242;10.280;2022-10-16T08:13:23;100645.00;;;13.20
25514;BMP180;48128;54.242;10.280;2022-10-16T08:15:50;100647.00;;;13.30
25514;BMP180;48128;54.242;10.280;2022-10-16T08:18:17;100656.00;;;13.30
25514;BMP180;48128;54.242;10.280;2022-10-16T08:20:44;100661.00;;;13.30
25514;BMP180;48128;54.242;10.280;2022-10-16T08:23:11;100671.00;;;13.40
25514;BMP180;48128;54.242;10.280;2022-10-16T08:25:39;100682.00;;;13.40
25514;BMP180;48128;54.242;10.280;2022-10-16T08:28:07;100684.00;;;13.50
25514;BMP180;48128;54.242;10.280;2022-10-16T08:30:34;100674.00;;;13.50
25514;BMP180;48128;54.242;10.280;2022-10-16T08:33:01;100675.00;;;13.50
25514;BMP180;48128;54.242;10.280;2022-10-16T08:35:28;100673.00;;;13.60
25514;BMP180;48128;54.242;10.280;2022-10-16T08:37:55;100685.00;;;13.60
25514;BMP180;48128;54.242;10.280;2022-10-16T08:40:27;100678.00;;;13.60
25514;BMP180;48128;54.242;10.280;2022-10-16T08:48:57;100692.00;;;13.90
25514;BMP180;48128;54.242;10.280;2022-10-16T08:51:27;100690.00;;;13.90
25514;BMP180;48128;54.242;10.280;2022-10-16T08:54:01;100700.00;;;13.90
25514;BMP180;48128;54.242;10.280;2022-10-16T08:56:29;100711.00;;;14.00
25514;BMP180;48128;54.242;10.280;2022-10-16T08:58:57;100715.00;;;14.10
25514;BMP180;48128;54.242;10.280;2022-10-16T09:01:40;100721.00;;;14.10
25514;BMP180;48128;54.242;10.280;2022-10-16T09:07:04;100722.00;;;14.20
25514;BMP180;48128;54.242;10.280;2022-10-16T09:20:28;100738.00;;;14.60
25514;BMP180;48128;54.242;10.280;2022-10-16T09:23:45;100748.00;;;14.70
25514;BMP180;48128;54.242;10.280;2022-10-16T09:25:49;100743.00;;;14.80
25514;BMP180;48128;54.242;10.280;2022-10-16T09:28:17;100742.00;;;14.80
25514;BMP180;48128;54.242;10.280;2022-10-16T09:30:45;100747.00;;;14.90
25514;BMP180;48128;54.242;10.280;2022-10-16T09:33:15;100747.00;;;14.90
25514;BMP180;48128;54.242;10.280;2022-10-16T09:35:53;100760.00;;;15.00
25514;BMP180;48128;54.242;10.280;2022-10-16T09:38:27;100769.00;;;15.10
25514;BMP180;48128;54.242;10.280;2022-10-16T09:40:56;100782.00;;;15.20
25514;BMP180;48128;54.242;10.280;2022-10-16T09:43:38;100783.00;;;15.30
25514;BMP180;48128;54.242;10.280;2022-10-16T09:46:19;100776.00;;;15.40
25514;BMP180;48128;54.242;10.280;2022-10-16T09:48:49;100793.00;;;15.50
25514;BMP180;48128;54.242;10.280;2022-10-16T09:51:30;100791.00;;;15.60
25514;BMP180;48128;54.242;10.280;2022-10-16T09:54:10;100801.00;;;15.80
25514;BMP180;48128;54.242;10.280;2022-10-16T09:56:39;100810.00;;;16.00
25514;BMP180;48128;54.242;10.280;2022-10-16T10:01:45;100828.00;;;16.10
25514;BMP180;48128;54.242;10.280;2022-10-16T10:04:13;100820.00;;;16.10
25514;BMP180;48128;54.242;10.280;2022-10-16T10:09:32;100834.00;;;16.20
25514;BMP180;48128;54.242;10.280;2022-10-16T10:12:02;100844.00;;;16.20
25514;BMP180;48128;54.242;10.280;2022-10-16T10:24:54;100848.00;;;16.10
25514;BMP180;48128;54.242;10.280;2022-10-16T10:27:21;100832.00;;;16.20
25514;BMP180;48128;54.242;10.280;2022-10-16T10:32:30;100860.00;;;16.20
25514;BMP180;48128;54.242;10.280;2022-10-16T10:35:25;100871.00;;;16.20
25514;BMP180;48128;54.242;10.280;2022-10-16T10:38:09;100861.00;;;16.30
25514;BMP180;48128;54.242;10.280;2022-10-16T10:45:48;100879.00;;;16.70
25514;BMP180;48128;54.242;10.280;2022-10-16T10:51:13;100903.00;;;17.00
25514;BMP180;48128;54.242;10.280;2022-10-16T10:54:13;100911.00;;;17.20
25514;BMP180;48128;54.242;10.280;2022-10-16T10:56:51;100909.00;;;17.20
25514;BMP180;48128;54.242;10.280;2022-10-16T11:02:37;100883.00;;;17.20
25514;BMP180;48128;54.242;10.280;2022-10-16T11:05:23;100905.00;;;17.20
25514;BMP180;48128;54.242;10.280;2022-10-16T11:08:00;100917.00;;;17.20
25514;BMP180;48128;54.242;10.280;2022-10-16T11:13:35;100930.00;;;17.40
25514;BMP180;48128;54.242;10.280;2022-10-16T11:16:09;100898.00;;;17.40
25514;BMP180;48128;54.242;10.280;2022-10-16T11:22:11;100955.00;;;17.60
25514;BMP180;48128;54.242;10.280;2022-10-16T11:25:34;100964.00;;;17.50
25514;BMP180;48128;54.242;10.280;2022-10-16T11:30:27;100971.00;;;17.20
25514;BMP180;48128;54.242;10.280;2022-10-16T11:35:39;100968.00;;;16.80
25514;BMP180;48128;54.242;10.280;2022-10-16T11:41:12;100960.00;;;16.60
25514;BMP180;48128;54.242;10.280;2022-10-16T11:43:43;100957.00;;;16.60
25514;BMP180;48128;54.242;10.280;2022-10-16T11:46:17;100961.00;;;16.50
25514;BMP180;48128;54.242;10.280;2022-10-16T11:49:06;100957.00;;;16.50
25514;BMP180;48128;54.242;10.280;2022-10-16T11:55:04;100969.00;;;16.40
25514;BMP180;48128;54.242;10.280;2022-10-16T11:57:52;100963.00;;;16.40
25514;BMP180;48128;54.242;10.280;2022-10-16T12:00:34;100997.00;;;16.40
25514;BMP180;48128;54.242;10.280;2022-10-16T12:03:14;100983.00;;;16.70
25514;BMP180;48128;54.242;10.280;2022-10-16T12:05:57;101015.00;;;16.90
25514;BMP180;48128;54.242;10.280;2022-10-16T12:08:25;100996.00;;;17.10
25514;BMP180;48128;54.242;10.280;2022-10-16T12:10:53;101041.00;;;17.20
25514;BMP180;48128;54.242;10.280;2022-10-16T12:13:33;101037.00;;;17.30
25514;BMP180;48128;54.242;10.280;2022-10-16T12:18:44;101060.00;;;17.50
25514;BMP180;48128;54.242;10.280;2022-10-16T12:21:12;101078.00;;;17.60
25514;BMP180;48128;54.242;10.280;2022-10-16T12:23:50;101065.00;;;17.50
25514;BMP180;48128;54.242;10.280;2022-10-16T12:26:52;101072.00;;;17.60
25514;BMP180;48128;54.242;10.280;2022-10-16T12:31:50;101049.00;;;17.70
25514;BMP180;48128;54.242;10.280;2022-10-16T12:34:42;101095.00;;;17.80
25514;BMP180;48128;54.242;10.280;2022-10-16T12:37:15;101096.00;;;17.60
25514;BMP180;48128;54.242;10.280;2022-10-16T12:39:47;101089.00;;;17.30
25514;BMP180;48128;54.242;10.280;2022-10-16T12:44:54;101086.00;;;16.90
25514;BMP180;48128;54.242;10.280;2022-10-16T12:47:34;101092.00;;;16.80
25514;BMP180;48128;54.242;10.280;2022-10-16T12:50:02;101099.00;;;16.90
25514;BMP180;48128;54.242;10.280;2022-10-16T12:52:38;101083.00;;;17.10
25514;BMP180;48128;54.242;10.280;2022-10-16T12:55:12;101091.00;;;17.20
25514;BMP180;48128;54.242;10.280;2022-10-16T13:01:08;101110.00;;;17.60
25514;BMP180;48128;54.242;10.280;2022-10-16T13:07:15;101145.00;;;17.50
25514;BMP180;48128;54.242;10.280;2022-10-16T13:10:23;101127.00;;;17.10
25514;BMP180;48128;54.242;10.280;2022-10-16T13:18:25;101101.00;;;16.40
25514;BMP180;48128;54.242;10.280;2022-10-16T13:21:14;101109.00;;;16.30
25514;BMP180;48128;54.242;10.280;2022-10-16T13:24:05;101122.00;;;16.10
25514;BMP180;48128;54.242;10.280;2022-10-16T13:29:10;101138.00;;;15.80
25514;BMP180;48128;54.242;10.280;2022-10-16T13:31:38;101133.00;;;15.70
25514;BMP180;48128;54.242;10.280;2022-10-16T13:34:06;101122.00;;;15.90
25514;BMP180;48128;54.242;10.280;2022-10-16T13:36:49;101131.00;;;16.00
25514;BMP180;48128;54.242;10.280;2022-10-16T13:42:17;101157.00;;;16.30
25514;BMP180;48128;54.242;10.280;2022-10-16T13:44:50;101186.00;;;16.40
25514;BMP180;48128;54.242;10.280;2022-10-16T13:49:46;101183.00;;;16.50
25514;BMP180;48128;54.242;10.280;2022-10-16T13:52:20;101213.00;;;16.50
25514;BMP180;48128;54.242;10.280;2022-10-16T13:54:47;101200.00;;;16.50
25514;BMP180;48128;54.242;10.280;2022-10-16T13:57:15;101206.00;;;16.50
25514;BMP180;48128;54.242;10.280;2022-10-16T13:59:53;101212.00;;;16.50
25514;BMP180;48128;54.242;10.280;2022-10-16T14:02:37;101218.00;;;16.50
25514;BMP180;48128;54.242;10.280;2022-10-16T14:05:08;101210.00;;;16.40
25514;BMP180;48128;54.242;10.280;2022-10-16T14:07:37;101203.00;;;16.40
25514;BMP180;48128;54.242;10.280;2022-10-16T14:12:59;101221.00;;;16.40
25514;BMP180;48128;54.242;10.280;2022-10-16T14:15:32;101190.00;;;16.40
25514;BMP180;48128;54.242;10.280;2022-10-16T14:18:25;101211.00;;;16.30
25514;BMP180;48128;54.242;10.280;2022-10-16T14:20:55;101218.00;;;16.20
25514;BMP180;48128;54.242;10.280;2022-10-16T14:23:38;101193.00;;;16.10
25514;BMP180;48128;54.242;10.280;2022-10-16T14:26:17;101214.00;;;16.00
25514;BMP180;48128;54.242;10.280;2022-10-16T14:28:45;101206.00;;;15.90
25514;BMP180;48128;54.242;10.280;2022-10-16T14:33:53;101185.00;;;15.60
25514;BMP180;48128;54.242;10.280;2022-10-16T14:36:20;101168.00;;;15.50
25514;BMP180;48128;54.242;10.280;2022-10-16T14:38:57;101170.00;;;15.40
25514;BMP180;48128;54.242;10.280;2022-10-16T14:41:40;101183.00;;;15.30
25514;BMP180;48128;54.242;10.280;2022-10-16T14:44:13;101196.00;;;15.20
25514;BMP180;48128;54.242;10.280;2022-10-16T14:46:45;101178.00;;;15.20
25514;BMP180;48128;54.242;10.280;2022-10-16T14:49:19;101179.00;;;15.20
25514;BMP180;48128;54.242;10.280;2022-10-16T14:51:47;101183.00;;;15.10
25514;BMP180;48128;54.242;10.280;2022-10-16T14:54:15;101182.00;;;15.10
25514;BMP180;48128;54.242;10.280;2022-10-16T14:59:38;101199.00;;;15.10
25514;BMP180;48128;54.242;10.280;2022-10-16T15:02:31;101201.00;;;15.10
25514;BMP180;48128;54.242;10.280;2022-10-16T15:04:59;101204.00;;;15.10
25514;BMP180;48128;54.242;10.280;2022-10-16T15:07:29;101204.00;;;15.00
25514;BMP180;48128;54.242;10.280;2022-10-16T15:09:56;101212.00;;;15.00
25514;BMP180;48128;54.242;10.280;2022-10-16T15:12:24;101223.00;;;15.00
25514;BMP180;48128;54.242;10.280;2022-10-16T15:14:53;101223.00;;;15.00
25514;BMP180;48128;54.242;10.280;2022-10-16T15:17:22;101230.00;;;15.00
25514;BMP180;48128;54.242;10.280;2022-10-16T15:19:49;101212.00;;;15.00
25514;BMP180;48128;54.242;10.280;2022-10-16T15:22:17;101232.00;;;15.00
25514;BMP180;48128;54.242;10.280;2022-10-16T15:24:44;101226.00;;;14.90
25514;BMP180;48128;54.242;10.280;2022-10-16T15:27:11;101240.00;;;14.80
25514;BMP180;48128;54.242;10.280;2022-10-16T15:29:38;101245.00;;;14.80
25514;BMP180;48128;54.242;10.280;2022-10-16T15:32:05;101234.00;;;14.80
25514;BMP180;48128;54.242;10.280;2022-10-16T15:34:38;101231.00;;;14.70
25514;BMP180;48128;54.242;10.280;2022-10-16T15:37:04;101232.00;;;14.60
25514;BMP180;48128;54.242;10.280;2022-10-16T15:39:31;101240.00;;;14.50
25514;BMP180;48128;54.242;10.280;2022-10-16T15:42:01;101244.00;;;14.50
25514;BMP180;48128;54.242;10.280;2022-10-16T15:44:28;101252.00;;;14.50
25514;BMP180;48128;54.242;10.280;2022-10-16T15:46:57;101244.00;;;14.50
25514;BMP180;48128;54.242;10.280;2022-10-16T15:49:23;101249.00;;;14.40
25514;BMP180;48128;54.242;10.280;2022-10-16T15:51:50;101252.00;;;14.40
25514;BMP180;48128;54.242;10.280;2022-10-16T15:54:19;101265.00;;;14.40
25514;BMP180;48128;54.242;10.280;2022-10-16T15:57:10;101277.00;;;14.40